Time;durP1;ratioP1;P1;durP2;ratioP2;P2;SDS_P1;SDS_P2;PMS_P1;PMS_P2;Temp;Humidity;BMP_temperature;BMP_pressure;BME280_temperature;BME280_humidity;BME280_pressure;Samples;Min_cycle;Max_cycle;Signal;HPM_P1;HPM_P2
2022/04/22 00:01:30;;;;;;;0.55;0.22;;;27.60;27.80;;;;;;5037972;28;20064;-69
2022/04/22 00:03:58;;;;;;;2.28;0.28;;;27.40;27.50;;;;;;5033472;28;20116;-68
2022/04/22 00:06:25;;;;;;;4.57;0.15;;;27.30;27.50;;;;;;5032269;28;20564;-65
2022/04/22 00:08:52;;;;;;;4.68;0.35;;;27.10;27.50;;;;;;5034776;28;20568;-66
2022/04/22 00:11:31;;;;;;;1.45;0.50;;;27.00;27.60;;;;;;5033833;28;20615;-66
2022/04/22 00:14:00;;;;;;;1.20;0.10;;;26.80;27.70;;;;;;5036186;28;20041;-65
2022/04/22 00:16:28;;;;;;;0.35;0.20;;;26.60;27.70;;;;;;5037740;28;20929;-65
2022/04/22 00:18:57;;;;;;;4.57;0.20;;;26.50;27.80;;;;;;5035672;28;20136;-64
2022/04/22 00:21:24;;;;;;;0.30;0.10;;;26.30;27.80;;;;;;5034118;28;20037;-66
2022/04/22 00:23:52;;;;;;;3.05;0.30;;;26.20;28.00;;;;;;5036123;28;20043;-66
2022/04/22 00:26:19;;;;;;;1.38;0.10;;;26.00;28.00;;;;;;5032896;28;20417;-66
2022/04/22 00:28:47;;;;;;;2.25;0.20;;;25.90;28.10;;;;;;5035714;28;20098;-65
2022/04/22 00:31:14;;;;;;;0.30;0.10;;;25.80;28.20;;;;;;5035459;28;20041;-65
2022/04/22 00:33:41;;;;;;;1.95;0.65;;;25.70;28.30;;;;;;5029970;28;20429;-65
2022/04/22 00:36:10;;;;;;;3.33;0.40;;;25.60;28.40;;;;;;5044251;28;20064;-66
2022/04/22 00:38:37;;;;;;;2.30;0.20;;;25.50;28.50;;;;;;5017678;28;20051;-66
2022/04/22 00:41:04;;;;;;;0.90;0.10;;;25.40;28.60;;;;;;5042797;28;20502;-66
2022/04/22 00:43:41;;;;;;;0.15;0.10;;;25.30;28.70;;;;;;5028422;28;20529;-66
2022/04/22 00:46:09;;;;;;;2.20;0.10;;;25.30;28.60;;;;;;5045638;28;20450;-67
2022/04/22 00:48:36;;;;;;;1.85;0.17;;;25.20;28.70;;;;;;5030827;28;20052;-66
2022/04/22 00:51:04;;;;;;;0.60;0.35;;;25.00;28.70;;;;;;5043607;28;20048;-66
2022/04/22 00:53:35;;;;;;;0.85;0.20;;;25.00;28.90;;;;;;5046896;28;20055;-66
2022/04/22 00:56:04;;;;;;;0.95;0.10;;;24.90;28.90;;;;;;5045377;28;20136;-66
2022/04/22 00:58:32;;;;;;;0.10;0.10;;;24.80;29.00;;;;;;5045900;28;20148;-67
2022/04/22 01:00:59;;;;;;;0.20;0.10;;;24.70;29.10;;;;;;5045669;28;20065;-67
2022/04/22 01:03:26;;;;;;;1.95;0.20;;;24.70;29.20;;;;;;5044577;28;20040;-63
2022/04/22 01:11:27;;;;;;;2.10;0.57;;;24.50;30.00;;;;;;5044389;28;20052;-60
2022/04/22 01:13:54;;;;;;;0.57;0.10;;;24.50;30.70;;;;;;5044185;28;20144;-62
2022/04/22 01:16:22;;;;;;;0.68;0.20;;;24.60;31.10;;;;;;5043716;28;20060;-63
2022/04/22 01:18:49;;;;;;;1.52;0.17;;;24.60;31.30;;;;;;5044228;28;20045;-62
2022/04/22 01:21:17;;;;;;;0.50;0.10;;;24.70;31.30;;;;;;5044692;28;20147;-61
2022/04/22 01:23:45;;;;;;;0.10;0.10;;;24.80;31.50;;;;;;5046109;28;20047;-61
2022/04/22 01:26:12;;;;;;;0.25;0.17;;;24.90;31.40;;;;;;5043968;28;20056;-61
2022/04/22 01:28:39;;;;;;;0.93;0.10;;;25.10;31.40;;;;;;5044521;28;20865;-61
2022/04/22 01:31:07;;;;;;;2.15;0.10;;;25.30;31.40;;;;;;5044389;28;20893;-62
2022/04/22 01:33:34;;;;;;;0.52;0.10;;;25.40;31.30;;;;;;5028057;28;20047;-62
2022/04/22 01:36:01;;;;;;;0.60;0.30;;;25.50;31.20;;;;;;5045164;28;20596;-62
2022/04/22 01:38:30;;;;;;;0.32;0.10;;;25.60;31.10;;;;;;5044327;28;20041;-62
2022/04/22 01:40:57;;;;;;;0.38;0.10;;;25.70;31.10;;;;;;5044126;28;20053;-62
2022/04/22 01:43:24;;;;;;;0.50;0.20;;;25.80;31.00;;;;;;5044562;28;20049;-62
2022/04/22 01:45:52;;;;;;;1.33;0.10;;;25.90;31.00;;;;;;5043820;28;20076;-62
2022/04/22 01:48:20;;;;;;;0.63;0.10;;;26.00;30.90;;;;;;5043715;28;20045;-62
2022/04/22 01:50:47;;;;;;;0.95;0.28;;;26.10;30.90;;;;;;5044593;28;20049;-63
2022/04/22 01:53:14;;;;;;;0.32;0.10;;;26.10;30.70;;;;;;5044532;28;20041;-60
2022/04/22 01:55:42;;;;;;;0.30;0.17;;;26.20;30.80;;;;;;5044022;28;20140;-61
2022/04/22 01:58:09;;;;;;;0.63;0.10;;;26.30;30.80;;;;;;5043536;28;20181;-61
2022/04/22 02:00:37;;;;;;;0.28;0.10;;;26.30;30.70;;;;;;5044608;28;20144;-61
2022/04/22 02:03:04;;;;;;;0.10;0.10;;;26.30;30.70;;;;;;5027560;28;112328;-61
2022/04/22 02:05:33;;;;;;;0.68;0.10;;;26.30;30.70;;;;;;5045828;28;20106;-61
2022/04/22 02:08:00;;;;;;;0.28;0.10;;;26.40;30.80;;;;;;5044717;28;20049;-61
2022/04/22 02:10:28;;;;;;;0.10;0.10;;;26.40;30.80;;;;;;5045201;28;20418;-62
2022/04/22 02:12:56;;;;;;;0.40;0.10;;;26.50;30.80;;;;;;5045713;28;20103;-62
2022/04/22 02:15:24;;;;;;;3.95;0.10;;;26.50;30.80;;;;;;5045179;28;20056;-63
2022/04/22 02:17:51;;;;;;;0.30;0.10;;;26.50;30.70;;;;;;5046057;28;20056;-62
2022/04/22 02:20:18;;;;;;;0.10;0.10;;;26.60;30.70;;;;;;5044675;28;20053;-63
2022/04/22 02:22:45;;;;;;;0.10;0.10;;;26.60;30.70;;;;;;5045344;28;20052;-62
2022/04/22 02:25:12;;;;;;;0.65;0.10;;;26.70;30.70;;;;;;5044892;28;20133;-62
2022/04/22 02:30:25;;;;;;;3.83;0.10;;;26.80;30.60;;;;;;5044719;28;20094;-64
2022/04/22 02:32:52;;;;;;;0.70;0.10;;;26.80;30.60;;;;;;5046458;28;20061;-63
2022/04/22 02:35:20;;;;;;;1.52;0.20;;;26.90;30.60;;;;;;5045200;28;20057;-63
2022/04/22 02:37:47;;;;;;;0.90;0.10;;;26.90;30.50;;;;;;5043789;28;20121;-63
2022/04/22 02:45:26;;;;;;;0.50;0.10;;;27.00;30.50;;;;;;5044690;28;20044;-63
2022/04/22 02:45:50;;;;;;;0.65;0.10;;;27.00;30.40;;;;;;5044009;28;20090;-63
2022/04/22 02:48:17;;;;;;;0.10;0.10;;;27.00;30.40;;;;;;5044371;28;20049;-63
2022/04/22 02:50:44;;;;;;;0.47;0.10;;;27.00;30.50;;;;;;5045992;28;20052;-63
2022/04/22 02:53:11;;;;;;;1.48;0.10;;;27.10;30.60;;;;;;5044518;28;20044;-63
2022/04/22 02:55:47;;;;;;;0.80;0.30;;;27.10;30.60;;;;;;5044028;28;20051;-62
2022/04/22 02:58:14;;;;;;;0.10;0.10;;;27.10;30.70;;;;;;5043087;28;20047;-62
2022/04/22 03:00:41;;;;;;;0.20;0.20;;;27.10;30.80;;;;;;5043962;28;20041;-63
2022/04/22 03:03:10;;;;;;;0.05;0.05;;;27.10;30.80;;;;;;5045170;28;20053;-63
2022/04/22 03:05:37;;;;;;;0.38;0.10;;;27.20;30.90;;;;;;5044829;28;20040;-62
2022/04/22 03:08:05;;;;;;;0.30;0.10;;;27.20;31.00;;;;;;5043823;28;20121;-63
2022/04/22 03:10:33;;;;;;;0.38;0.10;;;27.20;31.00;;;;;;5043894;28;20044;-62
2022/04/22 03:13:00;;;;;;;0.22;0.20;;;27.20;31.00;;;;;;5026327;28;20707;-62
2022/04/22 03:15:27;;;;;;;0.20;0.20;;;27.20;31.00;;;;;;5044000;28;20041;-62
2022/04/22 03:17:54;;;;;;;1.00;0.20;;;27.30;31.20;;;;;;5045000;28;20076;-62
2022/04/22 03:20:22;;;;;;;0.82;0.10;;;27.30;31.20;;;;;;5043876;28;20064;-62
2022/04/22 03:22:49;;;;;;;1.00;0.10;;;27.30;31.20;;;;;;5043263;28;20051;-61
2022/04/22 03:25:19;;;;;;;0.10;0.10;;;27.30;31.20;;;;;;5043783;28;20041;-62
2022/04/22 03:27:46;;;;;;;0.08;0.05;;;27.30;31.30;;;;;;5042967;28;20099;-61
2022/04/22 03:30:14;;;;;;;0.98;0.00;;;27.30;31.30;;;;;;5043433;28;20049;-62
2022/04/22 03:32:41;;;;;;;0.08;0.00;;;27.40;31.40;;;;;;5044767;28;20041;-62
2022/04/22 03:35:08;;;;;;;0.10;0.10;;;27.40;31.40;;;;;;5043844;28;20037;-62
2022/04/22 03:37:37;;;;;;;1.85;0.00;;;27.40;31.40;;;;;;5042477;28;20869;-62
2022/04/22 03:40:05;;;;;;;1.55;0.10;;;27.40;31.50;;;;;;5043706;28;20041;-62
2022/04/22 03:42:32;;;;;;;0.17;0.10;;;27.40;31.50;;;;;;5036989;28;20048;-62
2022/04/22 03:44:59;;;;;;;1.55;0.10;;;27.40;31.50;;;;;;5042615;28;20520;-61
2022/04/22 03:47:26;;;;;;;0.30;0.20;;;27.40;31.50;;;;;;5042476;28;20048;-59
2022/04/22 03:49:53;;;;;;;0.10;0.10;;;27.40;31.50;;;;;;5043199;28;20047;-61
2022/04/22 03:52:20;;;;;;;0.10;0.10;;;27.40;31.50;;;;;;5042077;28;20408;-61
2022/04/22 03:54:49;;;;;;;0.50;0.10;;;27.40;31.50;;;;;;5040544;28;20047;-60
2022/04/22 04:00:00;;;;;;;1.55;0.10;;;27.40;31.50;;;;;;5044534;28;20045;-60
2022/04/22 04:02:28;;;;;;;0.32;0.10;;;27.40;31.60;;;;;;5042786;28;20064;-61
2022/04/22 04:04:55;;;;;;;0.30;0.10;;;27.40;31.50;;;;;;5043148;28;20120;-62
2022/04/22 04:07:22;;;;;;;0.10;0.10;;;27.40;31.60;;;;;;5042301;28;20040;-62
2022/04/22 04:18:05;;;;;;;0.10;0.10;;;27.30;31.90;;;;;;5038878;28;20041;-63
2022/04/22 04:23:17;;;;;;;0.10;0.10;;;27.40;32.00;;;;;;5042163;28;20056;-63
2022/04/22 04:25:48;;;;;;;0.20;0.10;;;27.40;32.00;;;;;;5040198;28;20041;-62
2022/04/22 04:28:17;;;;;;;0.10;0.10;;;27.40;32.00;;;;;;5046948;28;20040;-61
2022/04/22 04:30:45;;;;;;;0.40;0.20;;;27.40;32.10;;;;;;5056757;28;20037;-62
2022/04/22 04:33:13;;;;;;;1.10;0.10;;;27.40;32.20;;;;;;5060165;28;20044;-62
2022/04/22 04:35:44;;;;;;;0.20;0.10;;;27.40;32.20;;;;;;5057867;28;20044;-62
2022/04/22 04:38:11;;;;;;;0.30;0.10;;;27.40;32.20;;;;;;5054792;28;20037;-61
2022/04/22 04:40:38;;;;;;;0.20;0.20;;;27.40;32.20;;;;;;5056749;28;21454;-62
2022/04/22 04:43:06;;;;;;;1.08;0.10;;;27.40;32.20;;;;;;5056995;28;20122;-61
2022/04/22 04:45:34;;;;;;;0.30;0.10;;;27.40;32.10;;;;;;5057695;28;20040;-61
2022/04/22 04:48:02;;;;;;;0.30;0.10;;;27.40;32.10;;;;;;5059133;28;20439;-62
2022/04/22 04:50:29;;;;;;;0.00;0.00;;;27.40;32.10;;;;;;5053031;28;20040;-61
2022/04/22 04:52:56;;;;;;;1.75;0.17;;;27.40;32.10;;;;;;5056649;28;20053;-62
2022/04/22 04:55:23;;;;;;;0.17;0.10;;;27.50;32.10;;;;;;5056405;28;20115;-62
2022/04/22 04:57:50;;;;;;;0.10;0.10;;;27.40;32.00;;;;;;5048024;28;20045;-61
2022/04/22 05:00:20;;;;;;;0.20;0.20;;;27.40;31.90;;;;;;5032585;28;20041;-61
2022/04/22 05:02:48;;;;;;;0.20;0.15;;;27.40;31.90;;;;;;5042421;28;20454;-60
2022/04/22 05:05:15;;;;;;;0.20;0.10;;;27.40;31.90;;;;;;5040875;28;20040;-61
2022/04/22 05:07:50;;;;;;;0.35;0.10;;;27.40;31.90;;;;;;5032258;28;20052;-62
2022/04/22 05:10:19;;;;;;;0.20;0.10;;;27.40;31.80;;;;;;5035118;28;20045;-61
2022/04/22 05:12:46;;;;;;;0.65;0.10;;;27.40;31.90;;;;;;5024699;28;20037;-62
2022/04/22 05:15:13;;;;;;;0.75;0.75;;;27.40;31.90;;;;;;5041674;28;20068;-62
2022/04/22 05:17:42;;;;;;;0.10;0.10;;;27.40;31.80;;;;;;5033079;28;20072;-62
2022/04/22 05:20:11;;;;;;;0.10;0.10;;;27.50;31.90;;;;;;5039687;28;20084;-62
2022/04/22 05:22:39;;;;;;;0.38;0.10;;;27.40;31.80;;;;;;5037064;28;20147;-61
2022/04/22 05:25:08;;;;;;;1.65;0.10;;;27.40;31.80;;;;;;5035754;28;20041;-57
2022/04/22 05:27:36;;;;;;;0.90;0.20;;;27.40;31.80;;;;;;5029696;28;20037;-62
2022/04/22 05:32:50;;;;;;;;;;;27.40;31.90;;;;;;5048396;28;20567;-61
2022/04/22 05:35:19;;;;;;;1.83;0.10;;;27.30;31.90;;;;;;5045677;28;19935;-63
2022/04/22 05:37:48;;;;;;;0.30;0.10;;;27.20;32.00;;;;;;5044975;28;20572;-62
2022/04/22 05:40:16;;;;;;;1.40;0.10;;;27.20;32.00;;;;;;5045563;28;20540;-63
2022/04/22 05:42:44;;;;;;;3.33;0.10;;;27.20;32.00;;;;;;5046092;28;20060;-62
2022/04/22 05:45:12;;;;;;;0.10;0.10;;;27.20;32.10;;;;;;5046650;28;20098;-61
2022/04/22 05:47:40;;;;;;;2.08;0.20;;;27.20;32.10;;;;;;5046438;28;20153;-62
2022/04/22 05:50:10;;;;;;;0.75;0.30;;;27.20;32.20;;;;;;5046022;28;20055;-60
2022/04/22 05:52:39;;;;;;;0.10;0.10;;;27.20;32.30;;;;;;5045208;28;20045;-61
2022/04/22 05:55:09;;;;;;;2.35;0.20;;;27.20;32.30;;;;;;5045492;28;20048;-61
2022/04/22 05:57:37;;;;;;;0.95;0.10;;;27.20;32.40;;;;;;5029510;28;20041;-63
2022/04/22 06:00:08;;;;;;;0.43;0.35;;;27.20;32.40;;;;;;5049152;28;20041;-62
2022/04/22 06:02:42;;;;;;;0.10;0.10;;;27.20;32.50;;;;;;5052232;28;20198;-63
2022/04/22 06:05:11;;;;;;;0.50;0.10;;;27.10;32.50;;;;;;5056201;28;20117;-62
2022/04/22 06:07:39;;;;;;;0.63;0.20;;;27.10;32.60;;;;;;5050281;28;20510;-60
2022/04/22 06:12:52;;;;;;;;;;;27.20;32.70;;;;;;5044525;28;20040;-63
2022/04/22 06:15:20;;;;;;;0.73;0.25;;;27.10;32.80;;;;;;5055033;28;19928;-62
2022/04/22 06:17:47;;;;;;;3.60;0.20;;;27.10;33.00;;;;;;5046332;28;20474;-59
2022/04/22 06:20:16;;;;;;;4.20;0.20;;;27.10;33.10;;;;;;5048750;28;20505;-61
2022/04/22 06:22:44;;;;;;;4.10;0.17;;;27.20;33.20;;;;;;5030106;28;20330;-63
2022/04/22 06:25:12;;;;;;;3.60;0.10;;;27.20;33.10;;;;;;5034063;28;20079;-61
2022/04/22 06:27:41;;;;;;;2.28;0.17;;;27.30;33.10;;;;;;5044986;28;20049;-60
2022/04/22 06:30:11;;;;;;;0.10;0.10;;;27.40;33.10;;;;;;5046108;28;20436;-63
2022/04/22 06:32:40;;;;;;;1.15;0.10;;;27.40;33.00;;;;;;5046289;28;20053;-53
2022/04/22 06:35:09;;;;;;;3.50;0.35;;;27.50;33.10;;;;;;5044652;28;20044;-51
2022/04/22 06:37:40;;;;;;;2.05;0.30;;;27.60;33.10;;;;;;5045404;28;20685;-70
2022/04/22 06:45:50;;;;;;;1.30;0.30;;;27.80;32.90;;;;;;5028330;28;20040;-64
2022/04/22 06:48:19;;;;;;;1.27;0.10;;;27.80;32.80;;;;;;5048971;28;20087;-70
2022/04/22 06:50:48;;;;;;;0.20;0.20;;;27.80;32.60;;;;;;5047890;28;20049;-74
2022/04/22 06:53:18;;;;;;;1.95;0.15;;;28.00;32.60;;;;;;5046193;28;20565;-58
2022/04/22 06:55:46;;;;;;;0.13;0.10;;;28.10;32.50;;;;;;5043949;28;20114;-58
2022/04/22 06:58:16;;;;;;;0.25;0.10;;;28.10;32.40;;;;;;5026002;28;20052;-58
2022/04/22 07:00:46;;;;;;;1.13;0.57;;;28.10;32.30;;;;;;5044823;28;20421;-62
2022/04/22 07:03:14;;;;;;;2.63;0.40;;;28.20;33.00;;;;;;5044249;28;20060;-64
2022/04/22 07:05:43;;;;;;;1.38;0.20;;;28.20;32.30;;;;;;5044894;28;20057;-60
2022/04/22 07:08:13;;;;;;;0.75;0.10;;;28.30;32.30;;;;;;5043032;28;20044;-60
2022/04/22 07:10:42;;;;;;;4.78;0.73;;;28.30;32.20;;;;;;5044517;28;20045;-58
2022/04/22 07:13:11;;;;;;;1.10;0.57;;;28.40;32.20;;;;;;5030922;28;20037;-62
2022/04/22 07:15:39;;;;;;;0.60;0.20;;;28.40;32.20;;;;;;5040614;28;20140;-58
2022/04/22 07:18:08;;;;;;;2.47;0.30;;;28.40;32.20;;;;;;5024682;28;20584;-63
2022/04/22 07:20:36;;;;;;;1.45;0.10;;;28.40;32.10;;;;;;5046259;28;20041;-66
2022/04/22 07:23:05;;;;;;;0.60;0.22;;;28.50;32.10;;;;;;5026105;28;20409;-62
2022/04/22 07:25:32;;;;;;;2.67;0.20;;;28.50;32.10;;;;;;5044449;28;20049;-65
2022/04/22 07:28:02;;;;;;;0.50;0.20;;;28.60;32.20;;;;;;5044621;28;20043;-58
2022/04/22 07:30:29;;;;;;;1.67;0.30;;;28.60;32.10;;;;;;5044236;28;20271;-61
2022/04/22 07:32:57;;;;;;;2.80;0.80;;;28.60;32.20;;;;;;5045229;28;20644;-63
2022/04/22 07:35:26;;;;;;;1.17;0.17;;;28.60;32.10;;;;;;5043245;28;20128;-67
2022/04/22 07:37:54;;;;;;;2.05;0.10;;;28.70;32.00;;;;;;5043730;28;20527;-68
2022/04/22 07:40:23;;;;;;;0.45;0.45;;;28.70;32.00;;;;;;5045709;28;20265;-68
2022/04/22 07:48:35;;;;;;;7.32;0.65;;;28.80;32.00;;;;;;5002979;28;20088;-46
2022/04/22 07:51:02;;;;;;;7.32;0.82;;;28.80;32.20;;;;;;5003367;28;20229;-67
2022/04/22 07:53:29;;;;;;;2.15;0.65;;;28.80;32.10;;;;;;5002348;28;20496;-67
2022/04/22 07:55:56;;;;;;;2.53;0.60;;;28.80;32.00;;;;;;4993341;28;20135;-49
2022/04/22 07:58:23;;;;;;;4.07;0.20;;;28.90;32.10;;;;;;5001665;28;20078;-59
2022/04/22 08:00:52;;;;;;;8.73;0.35;;;28.90;32.20;;;;;;5002856;28;20588;-59
2022/04/22 08:03:19;;;;;;;1.10;0.60;;;28.90;32.30;;;;;;5003301;28;20050;-62
2022/04/22 08:05:46;;;;;;;5.75;0.63;;;28.90;32.40;;;;;;5002278;28;20058;-71
2022/04/22 08:08:14;;;;;;;0.57;0.17;;;28.90;32.40;;;;;;4998220;28;20056;-65
2022/04/22 08:10:41;;;;;;;4.07;0.20;;;28.90;32.30;;;;;;5002261;28;20054;-71
2022/04/22 08:13:10;;;;;;;0.85;0.30;;;28.90;32.40;;;;;;5001538;28;20114;-61
2022/04/22 08:15:37;;;;;;;2.22;0.63;;;28.90;32.50;;;;;;4985571;28;20050;-60
2022/04/22 08:18:06;;;;;;;2.15;0.43;;;28.90;32.50;;;;;;4997488;28;20053;-58
2022/04/22 08:20:35;;;;;;;1.40;0.20;;;28.90;32.70;;;;;;5020135;28;20732;-59
2022/04/22 08:23:03;;;;;;;0.77;0.28;;;28.90;32.70;;;;;;5039686;28;20049;-63
2022/04/22 08:25:30;;;;;;;4.30;0.68;;;28.90;32.80;;;;;;5043204;28;20033;-64
2022/04/22 08:27:57;;;;;;;0.30;0.10;;;28.90;32.80;;;;;;5042769;28;20047;-63
2022/04/22 08:30:26;;;;;;;0.55;0.20;;;28.90;32.80;;;;;;5043344;28;20045;-62
2022/04/22 08:32:53;;;;;;;1.95;0.20;;;28.90;32.80;;;;;;5044659;28;20045;-56
2022/04/22 08:35:21;;;;;;;1.42;0.20;;;28.90;32.80;;;;;;5042954;28;20049;-62
2022/04/22 08:37:48;;;;;;;1.88;0.17;;;28.90;32.70;;;;;;5043682;28;20045;-69
2022/04/22 08:40:16;;;;;;;0.22;0.22;;;28.90;32.90;;;;;;5043426;28;20525;-64
2022/04/22 08:42:46;;;;;;;1.63;0.25;;;28.90;33.00;;;;;;5043934;28;20474;-67
2022/04/22 08:45:13;;;;;;;4.03;0.30;;;28.90;33.10;;;;;;5043393;28;20399;-68
2022/04/22 08:50:30;;;;;;;0.55;0.10;;;28.90;33.10;;;;;;5042549;28;20061;-71
2022/04/22 08:53:03;;;;;;;0.35;0.10;;;28.90;33.10;;;;;;5042767;28;20136;-60
2022/04/22 08:55:32;;;;;;;0.95;0.10;;;28.90;33.10;;;;;;5042409;28;20052;-69
2022/04/22 08:58:00;;;;;;;1.95;0.43;;;28.90;33.10;;;;;;5044034;28;20037;-62
2022/04/22 09:00:29;;;;;;;0.63;0.20;;;28.90;33.10;;;;;;5046703;28;20581;-73
2022/04/22 09:02:56;;;;;;;0.90;0.13;;;28.90;33.20;;;;;;5046828;28;20267;-71
2022/04/22 09:05:25;;;;;;;0.20;0.10;;;28.80;33.10;;;;;;5046671;28;20041;-68
2022/04/22 09:07:54;;;;;;;2.25;0.20;;;28.90;33.20;;;;;;5045899;28;20056;-68
2022/04/22 09:10:22;;;;;;;0.40;0.10;;;28.90;33.20;;;;;;5046248;28;20048;-68
2022/04/22 09:12:53;;;;;;;0.10;0.10;;;28.80;33.00;;;;;;5046692;28;20051;-61
2022/04/22 09:15:22;;;;;;;0.45;0.25;;;28.90;33.00;;;;;;5046966;28;20025;-54
2022/04/22 09:17:50;;;;;;;5.28;0.75;;;28.90;32.90;;;;;;5044813;28;20052;-68
2022/04/22 09:20:17;;;;;;;0.52;0.10;;;28.90;32.90;;;;;;5045778;28;20087;-67
2022/04/22 09:22:45;;;;;;;1.95;0.20;;;28.90;32.80;;;;;;5046533;28;20588;-69
2022/04/22 09:25:23;;;;;;;0.90;0.20;;;29.00;32.70;;;;;;5047093;28;20045;-68
2022/04/22 09:27:51;;;;;;;0.15;0.10;;;29.10;32.60;;;;;;5041909;28;20120;-67
2022/04/22 09:30:18;;;;;;;2.60;0.15;;;29.10;32.60;;;;;;5043033;28;20098;-68
2022/04/22 09:32:45;;;;;;;1.67;0.10;;;29.10;32.50;;;;;;5047424;28;20052;-68
2022/04/22 09:35:15;;;;;;;3.80;0.20;;;29.20;32.40;;;;;;5035502;28;20042;-68
2022/04/22 09:43:26;;;;;;;2.25;0.30;;;29.30;32.20;;;;;;5046220;28;20433;-68
2022/04/22 09:45:54;;;;;;;10.77;0.50;;;29.20;32.20;;;;;;5046047;28;20056;-67
2022/04/22 09:48:22;;;;;;;2.47;0.22;;;29.30;32.10;;;;;;5045631;28;20056;-67
2022/04/22 09:50:52;;;;;;;0.65;0.17;;;29.30;32.00;;;;;;5045502;28;20719;-67
2022/04/22 09:53:32;;;;;;;0.10;0.10;;;29.30;31.90;;;;;;5045666;28;20078;-67
2022/04/22 09:56:07;;;;;;;0.80;0.20;;;29.30;31.90;;;;;;5045107;28;20056;-66
2022/04/22 09:58:34;;;;;;;0.52;0.10;;;29.30;31.80;;;;;;5045787;28;20059;-67
2022/04/22 10:01:04;;;;;;;0.82;0.28;;;29.30;31.80;;;;;;5027576;28;20056;-68
2022/04/22 10:03:33;;;;;;;0.63;0.10;;;29.30;31.70;;;;;;5027441;28;20716;-68
2022/04/22 10:06:01;;;;;;;2.35;0.63;;;29.40;31.70;;;;;;5046503;28;20041;-69
2022/04/22 10:08:33;;;;;;;0.57;0.10;;;29.30;31.60;;;;;;5027116;28;20052;-68
2022/04/22 10:11:03;;;;;;;1.65;0.10;;;29.40;31.60;;;;;;5045490;28;20804;-69
2022/04/22 10:13:34;;;;;;;0.20;0.10;;;29.40;31.50;;;;;;5045533;28;20129;-69
2022/04/22 10:16:02;;;;;;;0.55;0.10;;;29.40;31.50;;;;;;5044635;28;20041;-69
2022/04/22 10:18:31;;;;;;;0.10;0.10;;;29.40;31.50;;;;;;5045239;28;20044;-69
2022/04/22 10:20:59;;;;;;;0.17;0.10;;;29.40;31.80;;;;;;5032521;28;20053;-69
2022/04/22 10:23:29;;;;;;;0.73;0.10;;;29.40;31.30;;;;;;5015988;28;20418;-68
2022/04/22 10:25:56;;;;;;;1.00;0.10;;;29.40;31.20;;;;;;5039051;28;20826;-68
2022/04/22 10:28:27;;;;;;;0.13;0.13;;;29.40;31.20;;;;;;5044733;28;20524;-67
2022/04/22 10:31:00;;;;;;;0.85;0.10;;;29.40;31.10;;;;;;5045041;28;20051;-68
2022/04/22 10:33:28;;;;;;;0.38;0.30;;;29.40;31.10;;;;;;5044177;28;20088;-68
2022/04/22 10:36:00;;;;;;;0.32;0.15;;;29.40;31.00;;;;;;5028035;28;20067;-68
2022/04/22 10:38:33;;;;;;;1.27;0.10;;;29.50;31.00;;;;;;5042587;28;20575;-68
2022/04/22 10:41:02;;;;;;;0.98;0.00;;;29.50;31.00;;;;;;5045373;28;20059;-69
2022/04/22 10:43:31;;;;;;;0.60;0.10;;;29.50;31.30;;;;;;5023451;28;20130;-68
2022/04/22 10:49:12;;;;;;;2.30;0.20;;;29.50;31.10;;;;;;5042770;28;20044;-71
2022/04/22 10:52:02;;;;;;;0.75;0.20;;;29.50;31.20;;;;;;5043885;28;20711;-66
2022/04/22 10:55:07;;;;;;;3.08;0.10;;;29.50;31.30;;;;;;5046790;28;20132;-66
2022/04/22 10:57:34;;;;;;;0.73;0.25;;;29.50;31.60;;;;;;5047877;28;20122;-66
2022/04/22 11:00:27;;;;;;;0.25;0.10;;;29.50;31.70;;;;;;5049169;28;20036;-67
2022/04/22 11:03:13;;;;;;;2.47;0.10;;;29.40;31.80;;;;;;5049200;28;20061;-60
2022/04/22 11:05:46;;;;;;;4.47;0.50;;;29.40;31.90;;;;;;5047205;28;20227;-58
2022/04/22 11:08:41;;;;;;;7.07;0.10;;;29.30;31.80;;;;;;5028788;28;20839;-58
2022/04/22 11:11:23;;;;;;;1.67;0.10;;;29.30;31.80;;;;;;4985210;28;20236;-58
2022/04/22 11:13:52;;;;;;;10.10;0.55;;;29.20;31.80;;;;;;4983078;28;20066;-59
2022/04/22 11:16:30;;;;;;;8.15;0.10;;;29.10;31.70;;;;;;4985121;28;20049;-58
2022/04/22 11:19:25;;;;;;;4.75;0.20;;;29.10;31.70;;;;;;4984666;28;20042;-58
2022/04/22 11:21:55;;;;;;;1.35;0.20;;;29.10;31.90;;;;;;4963978;28;20085;-56
2022/04/22 11:24:25;;;;;;;0.95;0.10;;;28.90;31.70;;;;;;4985072;28;20559;-60
2022/04/22 11:26:53;;;;;;;1.38;0.15;;;28.90;31.70;;;;;;4986838;28;20497;-58
2022/04/22 11:29:21;;;;;;;2.50;0.20;;;28.90;31.70;;;;;;4984758;28;20054;-59
2022/04/22 11:32:05;;;;;;;0.55;0.25;;;28.90;31.70;;;;;;4985007;28;20058;-59
2022/04/22 11:35:03;;;;;;;1.58;0.10;;;28.90;31.70;;;;;;4985116;28;20042;-59
2022/04/22 11:37:30;;;;;;;0.20;0.10;;;28.90;31.90;;;;;;4983114;28;20049;-59
2022/04/22 11:39:57;;;;;;;5.25;0.30;;;28.80;32.00;;;;;;4983936;28;20053;-61
2022/04/22 11:42:25;;;;;;;5.63;0.13;;;28.80;29.70;;;;;;4981767;28;20054;-60
2022/04/22 11:45:06;;;;;;;0.10;0.10;;;28.70;30.10;;;;;;4977251;28;20038;-63
2022/04/22 11:47:35;;;;;;;2.05;0.30;;;28.70;32.00;;;;;;5029291;28;20053;-61
2022/04/22 11:50:02;;;;;;;8.60;0.40;;;28.70;32.00;;;;;;5023130;28;20037;-66
2022/04/22 11:52:30;;;;;;;1.10;0.28;;;28.80;31.80;;;;;;5034209;28;20045;-64
2022/04/22 11:55:01;;;;;;;1.80;0.22;;;28.80;31.50;;;;;;5039394;28;20119;-67
2022/04/22 11:57:34;;;;;;;1.60;0.25;;;29.00;31.60;;;;;;5043489;28;20564;-78
2022/04/22 12:05:34;;;;;;;0.63;0.10;;;29.20;30.50;;;;;;5044269;28;20064;-77
2022/04/22 12:08:05;;;;;;;1.73;0.20;;;29.30;30.30;;;;;;5028766;28;20772;-77
2022/04/22 12:10:33;;;;;;;0.17;0.17;;;29.40;30.10;;;;;;5053185;28;20051;-77
2022/04/22 12:13:02;;;;;;;0.20;0.10;;;29.50;30.00;;;;;;5051947;28;20045;-76
2022/04/22 12:15:31;;;;;;;0.32;0.30;;;29.60;29.70;;;;;;5048020;28;20569;-66
2022/04/22 12:17:59;;;;;;;1.85;0.10;;;29.80;30.00;;;;;;5028225;28;20045;-66
2022/04/22 12:20:26;;;;;;;2.40;0.10;;;29.90;29.50;;;;;;5039504;28;20053;-78
2022/04/22 12:22:56;;;;;;;3.60;0.10;;;30.00;29.60;;;;;;5043959;28;20052;-66
2022/04/22 12:25:23;;;;;;;3.50;0.10;;;30.10;29.30;;;;;;5042880;28;20128;-66
2022/04/22 12:28:08;;;;;;;1.42;0.10;;;30.20;29.20;;;;;;5043671;28;20065;-65
2022/04/22 12:30:37;;;;;;;1.50;0.20;;;30.30;29.20;;;;;;5043955;28;20103;-69
2022/04/22 12:33:06;;;;;;;0.40;0.20;;;30.40;29.00;;;;;;5049919;28;20048;-67
2022/04/22 12:35:33;;;;;;;0.20;0.10;;;30.40;28.90;;;;;;5049245;28;20619;-71
2022/04/22 12:38:06;;;;;;;0.20;0.20;;;30.50;28.70;;;;;;5047713;28;20048;-62
2022/04/22 12:40:48;;;;;;;0.10;0.10;;;30.50;28.50;;;;;;5047468;28;20492;-64
2022/04/22 12:43:22;;;;;;;3.33;0.20;;;30.60;28.50;;;;;;5047802;28;20183;-63
2022/04/22 12:54:12;;;;;;;0.50;0.15;;;30.70;28.30;;;;;;5039420;28;20041;-59
2022/04/22 12:56:40;;;;;;;0.60;0.60;;;30.80;28.30;;;;;;5046933;28;20049;-58
2022/04/22 12:59:07;;;;;;;0.30;0.15;;;30.90;28.10;;;;;;5046735;28;20048;-62
2022/04/22 13:01:37;;;;;;;0.52;0.47;;;30.90;28.10;;;;;;5046322;28;20540;-59
2022/04/22 13:04:06;;;;;;;1.55;0.20;;;31.00;28.10;;;;;;5046873;28;20049;-59
2022/04/22 13:06:37;;;;;;;1.85;0.10;;;31.10;28.10;;;;;;5046060;28;20037;-61
2022/04/22 13:09:05;;;;;;;0.68;0.10;;;31.10;28.10;;;;;;5043734;28;20059;-62
2022/04/22 13:11:33;;;;;;;0.10;0.10;;;31.10;28.00;;;;;;5046384;28;20056;-67
2022/04/22 13:14:01;;;;;;;0.22;0.20;;;31.10;27.90;;;;;;5046757;28;20060;-63
2022/04/22 13:16:28;;;;;;;2.85;0.28;;;31.20;27.90;;;;;;5045693;28;20044;-63
2022/04/22 13:18:56;;;;;;;0.90;0.20;;;31.20;27.80;;;;;;5046157;28;20041;-63
2022/04/22 13:21:25;;;;;;;2.15;0.10;;;31.30;27.80;;;;;;5046403;28;20068;-63
2022/04/22 13:23:52;;;;;;;2.65;0.20;;;31.40;27.80;;;;;;5047179;28;20083;-63
2022/04/22 13:26:19;;;;;;;1.00;0.28;;;31.50;27.80;;;;;;5045744;28;20402;-63
2022/04/22 13:28:46;;;;;;;1.52;0.10;;;31.50;27.70;;;;;;5046008;28;20528;-59
2022/04/22 13:31:13;;;;;;;1.13;0.10;;;31.60;27.60;;;;;;5045951;28;20048;-57
2022/04/22 13:33:40;;;;;;;0.28;0.10;;;31.70;27.70;;;;;;5046723;28;20044;-60
2022/04/22 13:36:10;;;;;;;1.60;0.20;;;31.70;27.70;;;;;;5052013;28;20041;-73
2022/04/22 13:38:40;;;;;;;0.68;0.15;;;31.70;27.60;;;;;;5043496;28;20056;-62
2022/04/22 13:41:08;;;;;;;1.10;0.20;;;31.80;27.50;;;;;;5047680;28;20094;-61
2022/04/22 13:43:36;;;;;;;0.30;0.10;;;31.80;27.50;;;;;;5049576;28;20039;-61
2022/04/22 13:54:20;;;;;;;3.33;0.10;;;31.90;27.40;;;;;;4994611;28;20533;-66
2022/04/22 13:56:48;;;;;;;2.15;0.20;;;31.90;27.50;;;;;;4990874;28;20085;-66
2022/04/22 13:59:15;;;;;;;5.75;0.15;;;32.00;27.40;;;;;;4996968;28;20137;-66
2022/04/22 14:01:43;;;;;;;3.97;0.30;;;32.00;27.60;;;;;;4993313;28;20054;-60
2022/04/22 14:04:11;;;;;;;0.43;0.20;;;32.00;26.90;;;;;;4991399;28;20054;-66
2022/04/22 14:06:38;;;;;;;2.50;0.57;;;32.00;26.60;;;;;;4980026;28;20054;-67
2022/04/22 14:09:06;;;;;;;1.85;0.15;;;31.90;26.40;;;;;;4994187;28;20129;-65
2022/04/22 14:11:34;;;;;;;1.38;0.52;;;31.90;26.20;;;;;;4994663;28;20141;-68
2022/04/22 14:14:02;;;;;;;0.70;0.10;;;31.80;26.20;;;;;;4999137;28;20049;-68